Nearby METAR (Airport) Reports

 

KPRN - Greenville, Alabama, USA
Distance from station: WNW 17mi, 28km
Updated: Tue, 11-Dec-2018 7:42am CST
Partly cloudy
Partly cloudy
 Wind from NW
Wind: NW 5 mph , 7 km/h
Temperature: 39°F , 4°C
Wind Chill: 35°F , 2°C
Dew Point: 34°F , 1°C
Humidity: 81%
Barometer: 30.37 inHg , 1028.4 hPa
Clouds: Partly cloudy
Visibility: 9 miles , 14 km
Cloud details: Partly cloudy 600 ft
2018/12/11 13:42 KPRN 111342Z AUTO 32004KT 9SM SCT006 04/01 A3037 RMK AO2 T00390006
KTOI - Troy, Alabama, USA
Distance from station: ENE 21mi, 34km
Updated: Tue, 11-Dec-2018 7:53am CST
Overcast
Overcast
 Wind from NNW
Wind: NNW 7 mph , 11 km/h
Temperature: 39°F , 4°C
Wind Chill: 34°F , 1°C
Dew Point: 36°F , 2°C
Humidity: 87%
Barometer: 30.38 inHg , 1028.8 hPa
Clouds: Overcast
Visibility: 9 miles , 14 km
Cloud details: Overcast 1000 ft
2018/12/11 13:53 KTOI 111353Z AUTO 34006KT 9SM OVC010 04/02 A3038 RMK AO2 SLP289 T00390017
K79J - Andalusia/Opp Ar, Alabama, USA
Distance from station: S 29mi, 47km
Updated: Tue, 11-Dec-2018 7:56am CST
Overcast
Overcast
 Wind from NNW
Wind: NNW 7 mph , 11 km/h
Temperature: 43°F , 6°C
Wind Chill: 39°F , 4°C
Dew Point: 36°F , 2°C
Humidity: 76%
Barometer: 30.38 inHg , 1028.8 hPa
Clouds: Overcast
Visibility: 10 miles , 16 km
Cloud details: Overcast 1000 ft
2018/12/11 13:56 K79J 111356Z AUTO 34006KT 10SM OVC010 06/02 A3038 RMK AO2 SLP288 T00610022
 
KMGM - Montgomery, Alabama, USA
Distance from station: N 39mi, 63km
Updated: Tue, 11-Dec-2018 7:53am CST
Mist, Clear
Mist, Clear
 Wind from WNW
Wind: WNW 6 mph , 9 km/h
Temperature: 37°F , 3°C
Wind Chill: 32°F , 0°C
Dew Point: 36°F , 2°C
Humidity: 93%
Barometer: 30.39 inHg , 1029.1 hPa
Summary: Mist
Clouds: Clear
Visibility: 4 miles , 6 km
2018/12/11 13:53 KMGM 111353Z 30005KT 4SM BR CLR 03/02 A3039 RMK AO2 SLP293 T00280022
KMXF - Maxwell Afb/Mgm, Alabama, USA
Distance from station: N 44mi, 70km
Updated: Tue, 11-Dec-2018 7:56am CST
Mist, Mostly cloudy
Mist, Mostly cloudy
 Wind from NW
Wind: NW 5 mph , 7 km/h
Temperature: 34°F , 1°C
Wind Chill: 29°F , -2°C
Dew Point: 32°F , 0°C
Humidity: 93%
Barometer: 30.38 inHg , 1028.8 hPa
Summary: Mist
Clouds: Mostly cloudy
Visibility: 4 miles , 6 km
Cloud details: Mostly cloudy 300 ft
2018/12/11 13:56 KMXF 111356Z AUTO 31004KT 4SM BR BKN003 01/00 A3038 RMK AO2 SLP292 T00130004 $
KLOR - Lowe Ahp/Ft. Ruc, Alabama, USA
Distance from station: SE 44mi, 71km
Updated: Tue, 11-Dec-2018 7:04am CST
Overcast
Overcast
 Wind from N
Wind: N 3 mph , 6 km/h
Temperature: 41°F , 5°C
Dew Point: 39°F , 4°C
Humidity: 93%
Barometer: 30.35 inHg , 1027.8 hPa
Clouds: Overcast
Visibility: 10 miles , 16 km
Cloud details: Overcast 1000 ft
2018/12/11 13:04 KLOR 111304Z AUTO 35003KT 10SM OVC010 05/04 A3035 RMK AO2 SLP262
 
KGZH - Evergreen, Alabama, USA
Distance from station: WSW 46mi, 75km
Updated: Tue, 11-Dec-2018 7:53am CST
Overcast
Overcast
 Wind from N
Wind: N 6 mph , 9 km/h
Temperature: 39°F , 4°C
Wind Chill: 35°F , 2°C
Dew Point: 36°F , 2°C
Humidity: 87%
Barometer: 30.40 inHg , 1029.5 hPa
Clouds: Overcast
Visibility: 10 miles , 16 km
Cloud details: Overcast 700 ft
2018/12/11 13:53 KGZH 111353Z AUTO 01005KT 10SM OVC007 04/02 A3040 RMK AO2 SLP295 T00440017
K0J4 - Florala Muni, Alabama, USA
Distance from station: S 47mi, 76km
Updated: Tue, 11-Dec-2018 6:58am CST
Overcast
Overcast
 Wind from calm
Wind: Calm
Temperature: 41°F , 5°C
Dew Point: 36°F , 2°C
Humidity: 81%
Barometer: 30.39 inHg , 1029.1 hPa
Clouds: Overcast
Visibility: 10 miles , 16 km
Cloud details: Overcast 900 ft
2018/12/11 12:58 K0J4 111258Z AUTO 00000KT 10SM OVC009 05/02 A3039 RMK AO2 SLP290 T00500022 $
KOZR - Ozark/Cairns Aaf, Alabama, USA
Distance from station: SE 49mi, 78km
Updated: Tue, 11-Dec-2018 7:31am CST
Overcast
Overcast
 Wind from WNW
Wind: WNW 3 mph , 6 km/h
Temperature: 41°F , 5°C
Dew Point: 37°F , 3°C
Humidity: 87%
Barometer: 30.36 inHg , 1028.1 hPa
Clouds: Overcast
Visibility: 10 miles , 16 km
Cloud details: Overcast 1000 ft
2018/12/11 13:31 KOZR 111331Z AUTO 30003KT 10SM OVC010 05/03 A3036 RMK AO2 SLP285
 
KHEY - Ft Rucker/Hanche, Alabama, USA
Distance from station: ESE 49mi, 79km
Updated: Tue, 11-Dec-2018 7:36am CST
Overcast
Overcast
 Wind from NNW
Wind: NNW 5 mph , 7 km/h
Temperature: 41°F , 5°C
Wind Chill: 38°F , 3°C
Dew Point: 39°F , 4°C
Humidity: 93%
Barometer: 30.36 inHg , 1028.1 hPa
Clouds: Overcast
Visibility: 10 miles , 16 km
Cloud details: Overcast 1000 ft
2018/12/11 13:36 KHEY 111336Z AUTO 33004KT 10SM OVC010 05/04 A3036 RMK AO2 SLP285
KDHN - Dothan, Alabama, USA
Distance from station: ESE 61mi, 97km
Updated: Tue, 11-Dec-2018 7:53am CST
Overcast
Overcast
 Wind from NNW
Wind: NNW 8 mph , 13 km/h
Temperature: 43°F , 6°C
Wind Chill: 38°F , 3°C
Dew Point: 37°F , 3°C
Humidity: 81%
Barometer: 30.39 inHg , 1029.1 hPa
Clouds: Overcast
Visibility: 10 miles , 16 km
Cloud details: Overcast 900 ft
2018/12/11 13:53 KDHN 111353Z 33007KT 10SM OVC009 06/03 A3039 RMK AO2 CIG 008V012 SLP292 T00560028
KCEW - Crestview, Florida, USA
Distance from station: S 66mi, 107km
Updated: Tue, 11-Dec-2018 7:53am CST
Overcast
Overcast
 Wind from NNE
Wind: NNE 6 mph , 9 km/h
Temperature: 43°F , 6°C
Wind Chill: 39°F , 4°C
Dew Point: 37°F , 3°C
Humidity: 81%
Barometer: 30.39 inHg , 1029.1 hPa
Clouds: Overcast
Visibility: 10 miles , 16 km
Cloud details: Overcast 1100 ft
2018/12/11 13:53 KCEW 111353Z AUTO 02005KT 10SM OVC011 06/03 A3039 RMK AO2 SLP291 T00560028
 
KEUF - Eufaula, Alabama, USA
Distance from station: ENE 73mi, 118km
Updated: Tue, 11-Dec-2018 6:58am CST

 Wind from NW
Wind: NW 6 mph , 9 km/h
Temperature: 43°F , 6°C
Wind Chill: 39°F , 4°C
Dew Point: 37°F , 3°C
Humidity: 81%
Barometer: 30.32 inHg , 1026.8 hPa
2018/12/11 12:58 KEUF 111258Z AUTO 32005KT 06/03 A3032 RMK AO2 SLP269 T00560033 $
KJKA - Gulf Shores, Alabama, USA
Distance from station: SSW 132mi, 212km
Updated: Tue, 11-Dec-2018 7:35am CST
Clear
Clear
 Wind from NNW
Wind: NNW 5 mph , 7 km/h
Temperature: 39°F , 4°C
Wind Chill: 35°F , 2°C
Dew Point: 37°F , 3°C
Humidity: 93%
Barometer: 30.41 inHg , 1029.8 hPa
Clouds: Clear
Visibility: 10 miles , 16 km
2018/12/11 13:35 KJKA 111335Z AUTO 33004KT 10SM CLR 04/03 A3041 RMK AO2 T00380025
KLSF - Ft Benning/Colum, Georgia, USA
Distance from station: SNE 89mi, 143km
Updated: Tue, 11-Dec-2018 6:56am CST
Partly cloudy
Partly cloudy
 Wind from WNW
Wind: WNW 9 mph , 15 km/h
Temperature: 39°F , 4°C
Wind Chill: 33°F , 1°C
Dew Point: 39°F , 4°C
Humidity: 100%
Barometer: 30.33 inHg , 1027.1 hPa
Clouds: Partly cloudy
Visibility: 10 miles , 16 km
Cloud details: Partly cloudy 1400 ft
2018/12/11 12:56 KLSF 111256Z 30008KT 10SM SCT014 04/04 A3033 RMK AO2A SCT V BKN SLPNO T00390039 $
 
KMOB - Mobile/Bates, Alabama, USA
Distance from station: SW 125mi, 202km
Updated: Tue, 11-Dec-2018 7:56am CST
Mist, Few clouds
Mist, Few clouds
 Wind from NNW
Wind: NNW 7 mph , 11 km/h
Temperature: 37°F , 3°C
Wind Chill: 32°F , 0°C
Dew Point: 36°F , 2°C
Humidity: 93%
Barometer: 30.42 inHg , 1030.1 hPa
Summary: Mist
Clouds: Few Clouds
Visibility: 3 miles , 5 km
Cloud details: Few Clouds 900 ft
Few Clouds 25000 ft
2018/12/11 13:56 KMOB 111356Z 33006KT 3SM BR FEW009 FEW250 03/02 A3042 RMK AO2 SLP301 T00330022
KNMM - Meridian Nas, Mississippi, USA
Distance from station: WNW 151mi, 243km
Updated: Tue, 11-Dec-2018 7:56am CST
Mist, Overcast
Mist, Overcast
 Wind from NNE
Wind: NNE 3 mph , 6 km/h
Temperature: 34°F , 1°C
Dew Point: 30°F , -1°C
Humidity: 87%
Barometer: 30.43 inHg , 1030.5 hPa
Summary: Mist
Clouds: Overcast
Visibility: 2 1/2 miles , 4 km
Cloud details: Overcast 200 ft
2018/12/11 13:56 KNMM 111356Z 03003KT 2 1/2SM BR OVC002 01/M01 A3043 RMK AO2 SLP318 T00061006 CHINO SOUTH VISNO SOUTH $
KQHY - Hurlbert (Ft Walton Bch), Florida, USA
Distance from station: S 94mi, 151km
Updated: Tue, 11-Dec-2018 7:56am CST
Mostly cloudy
Mostly cloudy
 Wind from NNW
Wind: NNW 7 mph , 11 km/h
Temperature: 43°F , 6°C
Wind Chill: 39°F , 4°C
Dew Point: 37°F , 3°C
Humidity: 81%
Barometer: 30.40 inHg , 1029.5 hPa
Clouds: Mostly cloudy
Visibility: 10 miles , 16 km
Cloud details: Mostly cloudy 1300 ft
2018/12/11 13:56 KQHY 111356Z AUTO 34006KT 10SM BKN013 06/03 A3040 RMK AO2 SLP301 T00580028 $
 
KTCL - Tuscaloosa, Alabama, USA
Distance from station: NNW 129mi, 207km
Updated: Tue, 11-Dec-2018 7:53am CST
Mist, Overcast
Mist, Overcast
 Wind from NNW
Wind: NNW 5 mph , 7 km/h
Temperature: 30°F , -1°C
Wind Chill: 25°F , -4°C
Dew Point: 28°F , -2°C
Humidity: 93%
Barometer: 30.45 inHg , 1031.2 hPa
Summary: Mist
Clouds: Overcast
Visibility: 2 1/2 miles , 4 km
Cloud details: Overcast 400 ft
2018/12/11 13:53 KTCL 111353Z 34004KT 2 1/2SM BR OVC004 M01/M02 A3045 RMK AO2 SLP310 T10061022
KECP - Panama City, Florida, USA
Distance from station: SSE 122mi, 196km
Updated: Tue, 11-Dec-2018 7:53am CST
Overcast
Overcast
 Wind from NNW
Wind: NNW 7 mph , 11 km/h
Temperature: 45°F , 7°C
Wind Chill: 41°F , 5°C
Dew Point: 37°F , 3°C
Humidity: 76%
Barometer: 30.38 inHg , 1028.8 hPa
Clouds: Overcast
Visibility: 10 miles , 16 km
Cloud details: Overcast 1300 ft
2018/12/11 13:53 KECP 111353Z 33006KT 10SM OVC013 07/03 A3038 RMK AO2 SLP299 T00670033
KCBM - Columbus Afb, Mississippi, USA
Distance from station: NW 175mi, 282km
Updated: Tue, 11-Dec-2018 6:56am CST
Freezing fog, Overcast
Freezing fog, Overcast
 Wind from calm
Wind: Calm
Temperature: 28°F , -2°C
Dew Point: 27°F , -3°C
Humidity: 93%
Barometer: 30.42 inHg , 1030.1 hPa
Summary: Freezing Fog
Clouds: Overcast
Visibility: 1/8 mile , 0.2 km
Cloud details: Overcast 100 ft
2018/12/11 12:56 KCBM 111256Z 00000KT 1/8SM R31C/0600V0800FT FZFG VV001 M02/M03 A3042 RMK AO2A SLP306 T10211031 $
 
KBHM - Birmingham, Alabama, USA
Distance from station: N 132mi, 212km
Updated: Tue, 11-Dec-2018 7:53am CST
Freezing fog, Overcast
Freezing fog, Overcast
 Wind from varies
Wind: varies 5 mph , 7 km/h
Temperature: 28°F , -2°C
Wind Chill: 22°F , -6°C
Dew Point: 28°F , -2°C
Humidity: 100%
Barometer: 30.42 inHg , 1030.1 hPa
Summary: Freezing Fog
Clouds: Overcast
Visibility: less than 1/4 mile , 0.4 km
Cloud details: Overcast 100 ft
2018/12/11 13:53 KBHM 111353Z VRB04KT M1/4SM FZFG VV001 M02/M02 A3042 RMK AO2 SLP305 T10171022 RVRNO $
KAAF - Apalachicola, Florida, USA
Distance from station: SSE 156mi, 250km
Updated: Tue, 11-Dec-2018 7:53am CST
Mostly cloudy
Mostly cloudy
 Wind from NNW
Wind: NNW 5 mph , 7 km/h
Temperature: 45°F , 7°C
Wind Chill: 42°F , 6°C
Dew Point: 37°F , 3°C
Humidity: 76%
Barometer: 30.36 inHg , 1028.1 hPa
Clouds: Mostly cloudy
Visibility: 10 miles , 16 km
Cloud details: Mostly cloudy 1500 ft
2018/12/11 13:53 KAAF 111353Z AUTO 33004KT 10SM BKN015 07/03 A3036 RMK AO2 SLP281 T00670028
KATL - Atlanta, Georgia, USA
Distance from station: NE 177mi, 287km
Updated: Tue, 11-Dec-2018 7:52am CST
Clear
Clear
 Wind from NW
Wind: NW 15 mph , 24 km/h
Temperature: 36°F , 2°C
Wind Chill: 27°F , -3°C
Dew Point: 28°F , -2°C
Humidity: 75%
Barometer: 30.29 inHg , 1025.7 hPa
Clouds: Clear
Visibility: 10 miles , 16 km
2018/12/11 13:52 KATL 111352Z 31013KT 10SM CLR 02/M02 A3029 RMK AO2 SLP264 T00171017
 
KGPT - Gulfport, Mississippi, USA
Distance from station: SW 192mi, 309km
Updated: Tue, 11-Dec-2018 7:53am CST
Mist, Clear
Mist, Clear
 Wind from N
Wind: N 8 mph , 13 km/h
Temperature: 37°F , 3°C
Wind Chill: 31°F , -1°C
Dew Point: 34°F , 1°C
Humidity: 87%
Barometer: 30.43 inHg , 1030.5 hPa
Summary: Mist
Clouds: Clear
Visibility: 6 miles , 10 km
2018/12/11 13:53 KGPT 111353Z 35007KT 6SM BR CLR 03/01 A3043 RMK AO2 SLP304 T00280011
KNEW - New Orleans/Lake, Louisiana, USA
Distance from station: SW 255mi, 410km
Updated: Tue, 11-Dec-2018 7:53am CST
Clear
Clear
 Wind from NNE
Wind: NNE 10 mph , 17 km/h
Temperature: 43°F , 6°C
Wind Chill: 37°F , 3°C
Dew Point: 36°F , 2°C
Humidity: 76%
Barometer: 30.46 inHg , 1031.5 hPa
Clouds: Clear
Visibility: 10 miles , 16 km
2018/12/11 13:53 KNEW 111353Z 02009KT 10SM CLR 06/02 A3046 RMK AO2 SLP306 T00610022
KP92 - Salt Point, Louisiana, USA
Distance from station: SW 347mi, 559km
Updated: Tue, 11-Dec-2018 7:53am CST

 Wind from calm
Wind: Calm
Barometer: 30.45 inHg , 1031.2 hPa
2018/12/11 13:53 KP92 111353Z AUTO 00000KT A3045 RMK AO1 SLP312 $